Meteo Giornale » Osservazioni meteo Francia » Saint-Yan
ore: 17:00 - Osservazioni Meteo Saint-Yan
Lat. 46° 25' N Lon. 4° 1' E Alt. 242 metri s.l.m.
26 °C
Sereno
Temp. 24 Ore
12 °C
28 °C
Ovest
20.3 Km/h
Dew point 11 °C
Umidità 39 %
Visibilità 10 Km
Il sole sorge alle ore 07:02
Il sole tramonta alle ore 20:25
| Data e Ora | Cielo e Fenomeni | T °C | DP °C | Um. % | Pres. hPa | Vis. km | Vento km/h | |
|---|---|---|---|---|---|---|---|---|
| Oggi h: 17:00 | Sereno | 26 | 11 | 39 | 1020 | 10 | O 20.3 | |
| Oggi h: 16:30 | Sereno | 25 | 11 | 41 | 1020 | 10 | O/SO 18.5 | |
| Oggi h: 16:00 | Sereno | 25 | 12 | 44 | 1020 | 10 | O 24 | |
| Oggi h: 15:30 | Sereno | 24 | 13 | 50 | 1020 | 10 | O 20.3 | |
| Oggi h: 15:00 | Sereno | 24 | 12 | 47 | 1021 | 10 | O 14.8 | |
| Oggi h: 14:30 | Sereno | 24 | 12 | 47 | 1021 | 10 | O 14.8 | |
| Oggi h: 14:00 | Molto Nuvoloso | 23 | 12 | 49 | 1021 | 10 | O 14.8 | |
| Oggi h: 13:30 | Molto Nuvoloso | 23 | 11 | 46 | 1021 | 10 | O 20.3 | |
| Oggi h: 13:00 | Molto Nuvoloso | 22 | 13 | 56 | 1021 | 10 | O/SO 18.5 | |
| Oggi h: 12:30 | Molto Nuvoloso | 21 | 13 | 60 | 1021 | 10 | O/SO 18.5 | |
| Oggi h: 12:00 | Molto Nuvoloso | 22 | 14 | 60 | 1021 | 10 | O/SO 18.5 | |
| Oggi h: 11:30 | Molto Nuvoloso | 21 | 12 | 56 | 1021 | 10 | O/SO 20.3 | |
| Oggi h: 11:00 | Molto Nuvoloso | 21 | 13 | 60 | 1021 | 10 | O/SO 14.8 | |
| Oggi h: 10:30 | Coperto | 20 | 12 | 59 | 1021 | 10 | O 14.8 | |
| Oggi h: 10:00 | Coperto | 19 | 14 | 72 | 1020 | 10 | S 9.3 | |
| Oggi h: 09:30 | Coperto | 18 | 14 | 77 | 1020 | 10 | S 9.3 | |
| Oggi h: 09:00 | Molto Nuvoloso | 18 | 14 | 77 | 1020 | 10 | S 9.3 | |
| Oggi h: 08:30 | Sereno | 16 | 14 | 87 | 1020 | 10 | SE 7.4 | |
| Oggi h: 08:00 | Sereno | 14 | 14 | 100 | 1020 | 10 | N 5.5 | |
| Oggi h: 07:30 | Sereno | 12 | 12 | 100 | 1020 | 10 | SE 9.3 | |
| Oggi h: 07:00 | Sereno | 13 | 13 | 100 | 1019 | 10 | SE 7.4 | |
| Oggi h: 06:30 | Sereno | 13 | 13 | 100 | 1019 | 10 | N 3.7 | |
| Oggi h: 06:00 | Sereno | 14 | 14 | 100 | 1019 | 10 | N 1.8 | |
| Oggi h: 05:30 | Sereno | 14 | 14 | 100 | 1019 | 10 | N 3.7 | |
| Oggi h: 05:00 | Sereno | 15 | 14 | 93 | 1019 | 10 | SO 7.4 | |
| Oggi h: 04:30 | Sereno | 15 | 15 | 100 | 1019 | 10 | N 5.5 | |
| Oggi h: 04:00 | Sereno | 15 | 15 | 100 | 1019 | 10 | N 3.7 | |
| Oggi h: 03:30 | Sereno | 15 | 15 | 100 | 1019 | 10 | N 5.5 | |
| Oggi h: 03:00 | Sereno | 16 | 15 | 93 | 1019 | 10 | N 5.5 | |
| Oggi h: 02:30 | Sereno | 16 | 16 | 100 | 1019 | 10 | N 5.5 | |
| Oggi h: 02:00 | Sereno | 17 | 16 | 93 | 1018 | 10 | N 5.5 | |
| Oggi h: 01:30 | Sereno | 17 | 16 | 93 | 1018 | 10 | N 5.5 | |
| Oggi h: 01:00 | Sereno | 17 | 16 | 93 | 1018 | 10 | N 5.5 | |
| Oggi h: 00:30 | Sereno | 17 | 16 | 93 | 1018 | 10 | N 5.5 | |
| Oggi h: 00:00 | Sereno | 17 | 16 | 93 | 1018 | 10 | N 5.5 | |
| Ieri h: 23:30 | Sereno | 18 | 17 | 93 | 1018 | 10 | N 5.5 | |
| Ieri h: 23:00 | Sereno | 18 | 17 | 93 | 1018 | 10 | N 3.7 | |
| Ieri h: 22:30 | Coperto | 19 | 17 | 88 | 1017 | 10 | O/NO 9.3 | |
| Ieri h: 22:00 | Nuvoloso | 19 | 17 | 88 | 1017 | 10 | O/NO 9.3 | |
| Ieri h: 21:30 | Molto Nuvoloso | 19 | 18 | 93 | 1017 | 10 | O 13 | |
| Ieri h: 21:00 | Temporale | 20 | 18 | 88 | 1015 | 2 | O/NO 14.8 | |
| Ieri h: 20:30 | Sereno | 21 | 18 | 82 | 1015 | 10 | NO 20.3 | |
| Ieri h: 20:00 | Sereno | 21 | 17 | 77 | 1015 | 10 | NO 24 | |
| Ieri h: 19:30 | Sereno | 23 | 16 | 64 | 1014 | 10 | NO 18.5 | |
| Ieri h: 19:00 | Temporale | 27 | 16 | 50 | 1014 | 10 | NO 7.4 | |
| Ieri h: 18:30 | Sereno | 27 | 15 | 47 | 1014 | 10 | N 5.5 | |
| Ieri h: 18:00 | Sereno | 28 | 15 | 45 | 1014 | 10 | NO 7.4 | |



